sensor_id;sensor_type;location;lat;lon;timestamp;temperature;humidity
57753;DHT22;43583;53.132;6.574;2023-10-19T00:01:21;8.30;99.90
57753;DHT22;43583;53.132;6.574;2023-10-19T00:03:52;8.30;99.90
57753;DHT22;43583;53.132;6.574;2023-10-19T00:06:21;8.30;99.90
57753;DHT22;43583;53.132;6.574;2023-10-19T00:08:48;8.30;99.90
57753;DHT22;43583;53.132;6.574;2023-10-19T00:11:17;8.20;99.90
57753;DHT22;43583;53.132;6.574;2023-10-19T00:13:51;8.20;99.90
57753;DHT22;43583;53.132;6.574;2023-10-19T00:16:20;8.20;99.90
57753;DHT22;43583;53.132;6.574;2023-10-19T00:18:52;8.20;99.90
57753;DHT22;43583;53.132;6.574;2023-10-19T00:21:18;8.20;99.90
57753;DHT22;43583;53.132;6.574;2023-10-19T00:23:58;8.20;99.90
57753;DHT22;43583;53.132;6.574;2023-10-19T00:26:27;8.20;99.90
57753;DHT22;43583;53.132;6.574;2023-10-19T00:28:55;8.20;99.90
57753;DHT22;43583;53.132;6.574;2023-10-19T00:31:25;8.20;99.90
57753;DHT22;43583;53.132;6.574;2023-10-19T00:33:55;8.20;99.90
57753;DHT22;43583;53.132;6.574;2023-10-19T00:36:21;8.20;99.90
57753;DHT22;43583;53.132;6.574;2023-10-19T00:38:49;8.20;99.90
57753;DHT22;43583;53.132;6.574;2023-10-19T00:41:17;8.20;99.90
57753;DHT22;43583;53.132;6.574;2023-10-19T00:43:48;8.20;99.90
57753;DHT22;43583;53.132;6.574;2023-10-19T00:46:23;8.20;99.90
57753;DHT22;43583;53.132;6.574;2023-10-19T00:49:01;8.30;99.90
57753;DHT22;43583;53.132;6.574;2023-10-19T00:51:29;8.20;99.90
57753;DHT22;43583;53.132;6.574;2023-10-19T00:54:18;8.20;99.90
57753;DHT22;43583;53.132;6.574;2023-10-19T00:57:07;8.30;99.90
57753;DHT22;43583;53.132;6.574;2023-10-19T00:59:37;8.30;99.90
57753;DHT22;43583;53.132;6.574;2023-10-19T01:02:29;8.30;99.90
57753;DHT22;43583;53.132;6.574;2023-10-19T01:04:56;8.30;99.90
57753;DHT22;43583;53.132;6.574;2023-10-19T01:07:27;8.30;99.90
57753;DHT22;43583;53.132;6.574;2023-10-19T01:09:55;8.30;99.90
57753;DHT22;43583;53.132;6.574;2023-10-19T01:12:26;8.30;99.90
57753;DHT22;43583;53.132;6.574;2023-10-19T01:15:17;8.30;99.90
57753;DHT22;43583;53.132;6.574;2023-10-19T01:17:47;8.30;99.90
57753;DHT22;43583;53.132;6.574;2023-10-19T01:20:21;8.30;99.90
57753;DHT22;43583;53.132;6.574;2023-10-19T01:28:10;8.30;99.90
57753;DHT22;43583;53.132;6.574;2023-10-19T01:30:39;8.30;99.90
57753;DHT22;43583;53.132;6.574;2023-10-19T01:33:05;8.30;99.90
57753;DHT22;43583;53.132;6.574;2023-10-19T01:35:39;8.30;99.90
57753;DHT22;43583;53.132;6.574;2023-10-19T01:38:23;8.30;99.90
57753;DHT22;43583;53.132;6.574;2023-10-19T01:40:50;8.30;99.90
57753;DHT22;43583;53.132;6.574;2023-10-19T01:43:18;8.30;99.90
57753;DHT22;43583;53.132;6.574;2023-10-19T01:45:52;8.30;99.90
57753;DHT22;43583;53.132;6.574;2023-10-19T01:48:21;8.30;99.90
57753;DHT22;43583;53.132;6.574;2023-10-19T01:51:07;8.30;99.90
57753;DHT22;43583;53.132;6.574;2023-10-19T01:53:37;8.30;99.90
57753;DHT22;43583;53.132;6.574;2023-10-19T01:56:12;8.30;99.90
57753;DHT22;43583;53.132;6.574;2023-10-19T01:58:43;8.30;99.90
57753;DHT22;43583;53.132;6.574;2023-10-19T02:01:14;8.30;99.90
57753;DHT22;43583;53.132;6.574;2023-10-19T02:03:48;8.30;99.90
57753;DHT22;43583;53.132;6.574;2023-10-19T02:06:21;8.30;99.90
57753;DHT22;43583;53.132;6.574;2023-10-19T02:09:02;8.30;99.90
57753;DHT22;43583;53.132;6.574;2023-10-19T02:11:47;8.30;99.90
57753;DHT22;43583;53.132;6.574;2023-10-19T02:14:17;8.30;99.90
57753;DHT22;43583;53.132;6.574;2023-10-19T02:16:49;8.30;99.90
57753;DHT22;43583;53.132;6.574;2023-10-19T02:19:19;8.30;99.90
57753;DHT22;43583;53.132;6.574;2023-10-19T02:21:50;8.30;99.90
57753;DHT22;43583;53.132;6.574;2023-10-19T02:24:16;8.30;99.90
57753;DHT22;43583;53.132;6.574;2023-10-19T02:26:42;8.30;99.90
57753;DHT22;43583;53.132;6.574;2023-10-19T02:29:09;8.30;99.90
57753;DHT22;43583;53.132;6.574;2023-10-19T02:31:40;8.30;99.90
57753;DHT22;43583;53.132;6.574;2023-10-19T02:34:06;8.30;99.90
57753;DHT22;43583;53.132;6.574;2023-10-19T02:36:34;8.30;99.90
57753;DHT22;43583;53.132;6.574;2023-10-19T02:39:04;8.30;99.90
57753;DHT22;43583;53.132;6.574;2023-10-19T02:41:34;8.30;99.90
57753;DHT22;43583;53.132;6.574;2023-10-19T02:44:03;8.30;99.90
57753;DHT22;43583;53.132;6.574;2023-10-19T02:46:29;8.30;99.90
57753;DHT22;43583;53.132;6.574;2023-10-19T02:49:03;8.40;99.90
57753;DHT22;43583;53.132;6.574;2023-10-19T02:51:30;8.30;99.90
57753;DHT22;43583;53.132;6.574;2023-10-19T02:53:57;8.30;99.90
57753;DHT22;43583;53.132;6.574;2023-10-19T02:56:26;8.30;99.90
57753;DHT22;43583;53.132;6.574;2023-10-19T02:58:55;8.30;99.90
57753;DHT22;43583;53.132;6.574;2023-10-19T03:01:27;8.30;99.90
57753;DHT22;43583;53.132;6.574;2023-10-19T03:04:01;8.30;99.90
57753;DHT22;43583;53.132;6.574;2023-10-19T03:06:28;8.30;99.90
57753;DHT22;43583;53.132;6.574;2023-10-19T03:09:04;8.30;99.90
57753;DHT22;43583;53.132;6.574;2023-10-19T03:11:39;8.30;99.90
57753;DHT22;43583;53.132;6.574;2023-10-19T03:14:07;8.40;99.90
57753;DHT22;43583;53.132;6.574;2023-10-19T03:16:33;8.30;99.90
57753;DHT22;43583;53.132;6.574;2023-10-19T03:19:00;8.40;99.90
57753;DHT22;43583;53.132;6.574;2023-10-19T03:21:26;8.40;99.90
57753;DHT22;43583;53.132;6.574;2023-10-19T03:23:58;8.40;99.90
57753;DHT22;43583;53.132;6.574;2023-10-19T03:26:27;8.40;99.90
57753;DHT22;43583;53.132;6.574;2023-10-19T03:28:59;8.40;99.90
57753;DHT22;43583;53.132;6.574;2023-10-19T03:31:33;8.40;99.90
57753;DHT22;43583;53.132;6.574;2023-10-19T03:34:02;8.40;99.90
57753;DHT22;43583;53.132;6.574;2023-10-19T03:36:31;8.40;99.90
57753;DHT22;43583;53.132;6.574;2023-10-19T03:38:58;8.40;99.90
57753;DHT22;43583;53.132;6.574;2023-10-19T03:41:30;8.40;99.90
57753;DHT22;43583;53.132;6.574;2023-10-19T03:44:01;8.40;99.90
57753;DHT22;43583;53.132;6.574;2023-10-19T03:46:27;8.40;99.90
57753;DHT22;43583;53.132;6.574;2023-10-19T03:49:06;8.40;99.90
57753;DHT22;43583;53.132;6.574;2023-10-19T03:51:37;8.50;99.90
57753;DHT22;43583;53.132;6.574;2023-10-19T03:54:26;8.50;99.90
57753;DHT22;43583;53.132;6.574;2023-10-19T03:56:53;8.50;99.90
57753;DHT22;43583;53.132;6.574;2023-10-19T03:59:19;8.50;99.90
57753;DHT22;43583;53.132;6.574;2023-10-19T04:01:46;8.50;99.90
57753;DHT22;43583;53.132;6.574;2023-10-19T04:04:12;8.50;99.90
57753;DHT22;43583;53.132;6.574;2023-10-19T04:06:39;8.50;99.90
57753;DHT22;43583;53.132;6.574;2023-10-19T04:09:19;8.50;99.90
57753;DHT22;43583;53.132;6.574;2023-10-19T04:11:45;8.50;99.90
57753;DHT22;43583;53.132;6.574;2023-10-19T04:14:14;8.50;99.90
57753;DHT22;43583;53.132;6.574;2023-10-19T04:16:41;8.50;99.90
57753;DHT22;43583;53.132;6.574;2023-10-19T04:19:11;8.50;99.90
57753;DHT22;43583;53.132;6.574;2023-10-19T04:21:37;8.50;99.90
57753;DHT22;43583;53.132;6.574;2023-10-19T04:24:10;8.60;99.90
57753;DHT22;43583;53.132;6.574;2023-10-19T04:26:36;8.60;99.90
57753;DHT22;43583;53.132;6.574;2023-10-19T04:29:06;8.60;99.90
57753;DHT22;43583;53.132;6.574;2023-10-19T04:31:43;8.60;99.90
57753;DHT22;43583;53.132;6.574;2023-10-19T04:34:18;8.60;99.90
57753;DHT22;43583;53.132;6.574;2023-10-19T04:36:49;8.60;99.90
57753;DHT22;43583;53.132;6.574;2023-10-19T04:39:15;8.60;99.90
57753;DHT22;43583;53.132;6.574;2023-10-19T04:41:47;8.60;99.90
57753;DHT22;43583;53.132;6.574;2023-10-19T04:44:15;8.60;99.90
57753;DHT22;43583;53.132;6.574;2023-10-19T04:46:41;8.60;99.90
57753;DHT22;43583;53.132;6.574;2023-10-19T04:49:07;8.60;99.90
57753;DHT22;43583;53.132;6.574;2023-10-19T04:51:34;8.60;99.90
57753;DHT22;43583;53.132;6.574;2023-10-19T04:54:05;8.70;99.90
57753;DHT22;43583;53.132;6.574;2023-10-19T04:56:38;8.60;99.90
57753;DHT22;43583;53.132;6.574;2023-10-19T04:59:06;8.70;99.90
57753;DHT22;43583;53.132;6.574;2023-10-19T05:01:32;8.60;99.90
57753;DHT22;43583;53.132;6.574;2023-10-19T05:04:01;8.60;99.90
57753;DHT22;43583;53.132;6.574;2023-10-19T05:06:33;8.60;99.90
57753;DHT22;43583;53.132;6.574;2023-10-19T05:11:46;8.70;99.90
57753;DHT22;43583;53.132;6.574;2023-10-19T05:14:15;8.70;99.90
57753;DHT22;43583;53.132;6.574;2023-10-19T05:16:44;8.70;99.90
57753;DHT22;43583;53.132;6.574;2023-10-19T05:19:20;8.70;99.90
57753;DHT22;43583;53.132;6.574;2023-10-19T05:22:01;8.70;99.90
57753;DHT22;43583;53.132;6.574;2023-10-19T05:24:27;8.70;99.90
57753;DHT22;43583;53.132;6.574;2023-10-19T05:26:53;8.70;99.90
57753;DHT22;43583;53.132;6.574;2023-10-19T05:29:25;8.70;99.90
57753;DHT22;43583;53.132;6.574;2023-10-19T05:32:05;8.70;99.90
57753;DHT22;43583;53.132;6.574;2023-10-19T05:34:47;8.70;99.90
57753;DHT22;43583;53.132;6.574;2023-10-19T05:37:58;8.70;99.90
57753;DHT22;43583;53.132;6.574;2023-10-19T05:40:35;8.60;99.90
57753;DHT22;43583;53.132;6.574;2023-10-19T05:43:59;8.70;99.90
57753;DHT22;43583;53.132;6.574;2023-10-19T05:46:58;8.70;99.90
57753;DHT22;43583;53.132;6.574;2023-10-19T05:49:52;8.70;99.90
57753;DHT22;43583;53.132;6.574;2023-10-19T05:52:24;8.70;99.90
57753;DHT22;43583;53.132;6.574;2023-10-19T05:54:50;8.70;99.90
57753;DHT22;43583;53.132;6.574;2023-10-19T05:57:17;8.70;99.90
57753;DHT22;43583;53.132;6.574;2023-10-19T06:03:52;8.70;99.90
57753;DHT22;43583;53.132;6.574;2023-10-19T06:07:02;8.70;99.90
57753;DHT22;43583;53.132;6.574;2023-10-19T06:21:41;8.80;99.90
57753;DHT22;43583;53.132;6.574;2023-10-19T06:43:11;8.80;99.90
57753;DHT22;43583;53.132;6.574;2023-10-19T06:48:43;8.80;99.90
57753;DHT22;43583;53.132;6.574;2023-10-19T06:52:03;8.80;99.90
57753;DHT22;43583;53.132;6.574;2023-10-19T07:15:45;8.90;99.90
57753;DHT22;43583;53.132;6.574;2023-10-19T08:53:52;9.40;99.90
57753;DHT22;43583;53.132;6.574;2023-10-19T10:54:23;10.00;99.90
57753;DHT22;43583;53.132;6.574;2023-10-19T12:57:59;10.30;99.90
57753;DHT22;43583;53.132;6.574;2023-10-19T13:13:08;10.10;99.90
57753;DHT22;43583;53.132;6.574;2023-10-19T13:24:07;10.00;99.90
57753;DHT22;43583;53.132;6.574;2023-10-19T13:30:07;10.00;99.90
57753;DHT22;43583;53.132;6.574;2023-10-19T13:46:34;9.90;99.90
57753;DHT22;43583;53.132;6.574;2023-10-19T13:49:38;9.90;99.90
57753;DHT22;43583;53.132;6.574;2023-10-19T13:55:43;9.90;99.90
57753;DHT22;43583;53.132;6.574;2023-10-19T13:58:43;9.90;99.90
57753;DHT22;43583;53.132;6.574;2023-10-19T14:01:49;9.90;99.90
57753;DHT22;43583;53.132;6.574;2023-10-19T14:05:08;9.90;99.90
57753;DHT22;43583;53.132;6.574;2023-10-19T14:08:07;9.90;99.90
57753;DHT22;43583;53.132;6.574;2023-10-19T14:11:25;9.90;99.90
57753;DHT22;43583;53.132;6.574;2023-10-19T14:13:58;9.90;99.90
57753;DHT22;43583;53.132;6.574;2023-10-19T14:16:39;9.90;99.90
57753;DHT22;43583;53.132;6.574;2023-10-19T14:19:31;9.80;99.90
57753;DHT22;43583;53.132;6.574;2023-10-19T14:22:57;9.80;99.90
57753;DHT22;43583;53.132;6.574;2023-10-19T14:29:19;9.80;99.90
57753;DHT22;43583;53.132;6.574;2023-10-19T14:39:51;9.70;99.90
57753;DHT22;43583;53.132;6.574;2023-10-19T14:42:43;9.80;99.90
57753;DHT22;43583;53.132;6.574;2023-10-19T14:45:17;9.80;99.90
57753;DHT22;43583;53.132;6.574;2023-10-19T14:55:56;9.80;99.90
57753;DHT22;43583;53.132;6.574;2023-10-19T14:58:48;9.80;99.90
57753;DHT22;43583;53.132;6.574;2023-10-19T15:01:47;9.80;99.90
57753;DHT22;43583;53.132;6.574;2023-10-19T15:04:32;9.70;99.90
57753;DHT22;43583;53.132;6.574;2023-10-19T15:06:58;9.80;99.90
57753;DHT22;43583;53.132;6.574;2023-10-19T15:09:25;9.70;99.90
57753;DHT22;43583;53.132;6.574;2023-10-19T15:39:11;9.70;99.90
57753;DHT22;43583;53.132;6.574;2023-10-19T15:46:34;9.60;99.90
57753;DHT22;43583;53.132;6.574;2023-10-19T16:10:23;9.50;99.90
57753;DHT22;43583;53.132;6.574;2023-10-19T16:12:51;9.50;99.90
57753;DHT22;43583;53.132;6.574;2023-10-19T16:15:20;9.50;99.90
57753;DHT22;43583;53.132;6.574;2023-10-19T16:17:48;9.50;99.90
57753;DHT22;43583;53.132;6.574;2023-10-19T16:27:19;9.50;99.90
57753;DHT22;43583;53.132;6.574;2023-10-19T16:29:44;9.50;99.90
57753;DHT22;43583;53.132;6.574;2023-10-19T16:32:32;9.50;99.90
57753;DHT22;43583;53.132;6.574;2023-10-19T16:35:07;9.50;99.90
57753;DHT22;43583;53.132;6.574;2023-10-19T16:37:34;9.50;99.90
57753;DHT22;43583;53.132;6.574;2023-10-19T16:40:00;9.50;99.90
57753;DHT22;43583;53.132;6.574;2023-10-19T16:42:26;9.50;99.90
57753;DHT22;43583;53.132;6.574;2023-10-19T16:44:54;9.50;99.90
57753;DHT22;43583;53.132;6.574;2023-10-19T16:47:20;9.50;99.90
57753;DHT22;43583;53.132;6.574;2023-10-19T16:49:47;9.50;99.90
57753;DHT22;43583;53.132;6.574;2023-10-19T16:52:16;9.50;99.90
57753;DHT22;43583;53.132;6.574;2023-10-19T16:54:44;9.50;99.90
57753;DHT22;43583;53.132;6.574;2023-10-19T16:57:10;9.40;99.90
57753;DHT22;43583;53.132;6.574;2023-10-19T16:59:43;9.40;99.90
57753;DHT22;43583;53.132;6.574;2023-10-19T17:02:11;9.40;99.90
57753;DHT22;43583;53.132;6.574;2023-10-19T17:04:36;9.40;99.90
57753;DHT22;43583;53.132;6.574;2023-10-19T17:07:04;9.40;99.90
57753;DHT22;43583;53.132;6.574;2023-10-19T17:09:37;9.40;99.90
57753;DHT22;43583;53.132;6.574;2023-10-19T17:12:06;9.40;99.90
57753;DHT22;43583;53.132;6.574;2023-10-19T17:14:34;9.40;99.90
57753;DHT22;43583;53.132;6.574;2023-10-19T17:17:03;9.40;99.90
57753;DHT22;43583;53.132;6.574;2023-10-19T17:19:47;9.40;99.90
57753;DHT22;43583;53.132;6.574;2023-10-19T17:22:41;9.40;99.90
57753;DHT22;43583;53.132;6.574;2023-10-19T17:25:19;9.40;99.90
57753;DHT22;43583;53.132;6.574;2023-10-19T17:27:56;9.40;99.90
57753;DHT22;43583;53.132;6.574;2023-10-19T17:30:44;9.40;99.90
57753;DHT22;43583;53.132;6.574;2023-10-19T17:33:31;9.40;99.90
57753;DHT22;43583;53.132;6.574;2023-10-19T17:36:02;9.30;99.90
57753;DHT22;43583;53.132;6.574;2023-10-19T17:38:41;9.30;99.90
57753;DHT22;43583;53.132;6.574;2023-10-19T17:41:15;9.30;99.90
57753;DHT22;43583;53.132;6.574;2023-10-19T17:44:03;9.30;99.90
57753;DHT22;43583;53.132;6.574;2023-10-19T17:46:29;9.30;99.90
57753;DHT22;43583;53.132;6.574;2023-10-19T17:48:58;9.30;99.90
57753;DHT22;43583;53.132;6.574;2023-10-19T17:51:46;9.30;99.90
57753;DHT22;43583;53.132;6.574;2023-10-19T17:54:35;9.30;99.90
57753;DHT22;43583;53.132;6.574;2023-10-19T17:57:13;9.20;99.90
57753;DHT22;43583;53.132;6.574;2023-10-19T18:00:07;9.20;99.90
57753;DHT22;43583;53.132;6.574;2023-10-19T18:03:04;9.20;99.90
57753;DHT22;43583;53.132;6.574;2023-10-19T18:06:05;9.20;99.90
57753;DHT22;43583;53.132;6.574;2023-10-19T18:08:37;9.10;99.90
57753;DHT22;43583;53.132;6.574;2023-10-19T18:11:03;9.10;99.90
57753;DHT22;43583;53.132;6.574;2023-10-19T18:13:40;9.10;99.90
57753;DHT22;43583;53.132;6.574;2023-10-19T18:16:13;9.10;99.90
57753;DHT22;43583;53.132;6.574;2023-10-19T18:18:39;9.10;99.90
57753;DHT22;43583;53.132;6.574;2023-10-19T18:21:29;9.20;99.90
57753;DHT22;43583;53.132;6.574;2023-10-19T18:24:01;9.10;99.90
57753;DHT22;43583;53.132;6.574;2023-10-19T18:27:19;9.10;99.90
57753;DHT22;43583;53.132;6.574;2023-10-19T18:29:52;9.00;99.90
57753;DHT22;43583;53.132;6.574;2023-10-19T18:35:22;9.10;99.90
57753;DHT22;43583;53.132;6.574;2023-10-19T18:37:57;9.00;99.90
57753;DHT22;43583;53.132;6.574;2023-10-19T18:40:52;9.00;99.90
57753;DHT22;43583;53.132;6.574;2023-10-19T18:43:17;9.00;99.90
57753;DHT22;43583;53.132;6.574;2023-10-19T18:45:43;9.00;99.90
57753;DHT22;43583;53.132;6.574;2023-10-19T18:48:08;8.90;99.90
57753;DHT22;43583;53.132;6.574;2023-10-19T18:50:34;8.90;99.90
57753;DHT22;43583;53.132;6.574;2023-10-19T18:53:00;8.90;99.90
57753;DHT22;43583;53.132;6.574;2023-10-19T18:55:26;8.90;99.90
57753;DHT22;43583;53.132;6.574;2023-10-19T18:57:53;8.90;99.90
57753;DHT22;43583;53.132;6.574;2023-10-19T19:00:22;8.90;99.90
57753;DHT22;43583;53.132;6.574;2023-10-19T19:02:52;8.80;99.90
57753;DHT22;43583;53.132;6.574;2023-10-19T19:05:18;8.80;99.90
57753;DHT22;43583;53.132;6.574;2023-10-19T19:07:44;8.80;99.90
57753;DHT22;43583;53.132;6.574;2023-10-19T19:10:10;8.80;99.90
57753;DHT22;43583;53.132;6.574;2023-10-19T19:12:36;8.80;99.90
57753;DHT22;43583;53.132;6.574;2023-10-19T19:15:03;8.80;99.90
57753;DHT22;43583;53.132;6.574;2023-10-19T19:17:29;8.80;99.90
57753;DHT22;43583;53.132;6.574;2023-10-19T19:19:54;8.80;99.90
57753;DHT22;43583;53.132;6.574;2023-10-19T19:22:21;8.80;99.90
57753;DHT22;43583;53.132;6.574;2023-10-19T19:24:47;8.70;99.90
57753;DHT22;43583;53.132;6.574;2023-10-19T19:27:13;8.70;99.90
57753;DHT22;43583;53.132;6.574;2023-10-19T19:29:39;8.70;99.90
57753;DHT22;43583;53.132;6.574;2023-10-19T19:32:05;8.70;99.90
57753;DHT22;43583;53.132;6.574;2023-10-19T19:34:35;8.70;99.90
57753;DHT22;43583;53.132;6.574;2023-10-19T19:37:00;8.70;99.90
57753;DHT22;43583;53.132;6.574;2023-10-19T19:39:26;8.70;99.90
57753;DHT22;43583;53.132;6.574;2023-10-19T19:41:52;8.60;99.90
57753;DHT22;43583;53.132;6.574;2023-10-19T19:44:18;8.70;99.90
57753;DHT22;43583;53.132;6.574;2023-10-19T19:46:43;8.60;99.90
57753;DHT22;43583;53.132;6.574;2023-10-19T19:49:09;8.60;99.90
57753;DHT22;43583;53.132;6.574;2023-10-19T19:51:35;8.70;99.90
57753;DHT22;43583;53.132;6.574;2023-10-19T19:54:01;8.70;99.90
57753;DHT22;43583;53.132;6.574;2023-10-19T19:56:26;8.70;99.90
57753;DHT22;43583;53.132;6.574;2023-10-19T19:58:52;8.70;99.90
57753;DHT22;43583;53.132;6.574;2023-10-19T20:01:19;8.60;99.90
57753;DHT22;43583;53.132;6.574;2023-10-19T20:03:45;8.60;99.90
57753;DHT22;43583;53.132;6.574;2023-10-19T20:06:11;8.60;99.90
57753;DHT22;43583;53.132;6.574;2023-10-19T20:08:40;8.60;99.90
57753;DHT22;43583;53.132;6.574;2023-10-19T20:11:05;8.60;99.90
57753;DHT22;43583;53.132;6.574;2023-10-19T20:13:33;8.60;99.90
57753;DHT22;43583;53.132;6.574;2023-10-19T20:15:58;8.60;99.90
57753;DHT22;43583;53.132;6.574;2023-10-19T20:18:24;8.60;99.90
57753;DHT22;43583;53.132;6.574;2023-10-19T20:20:50;8.60;99.90
57753;DHT22;43583;53.132;6.574;2023-10-19T20:23:15;8.60;99.90
57753;DHT22;43583;53.132;6.574;2023-10-19T20:25:45;8.60;99.90
57753;DHT22;43583;53.132;6.574;2023-10-19T20:28:11;8.60;99.90
57753;DHT22;43583;53.132;6.574;2023-10-19T20:30:36;8.60;99.90
57753;DHT22;43583;53.132;6.574;2023-10-19T20:33:02;8.60;99.90
57753;DHT22;43583;53.132;6.574;2023-10-19T20:35:29;8.50;99.90
57753;DHT22;43583;53.132;6.574;2023-10-19T20:37:58;8.60;99.90
57753;DHT22;43583;53.132;6.574;2023-10-19T20:40:24;8.50;99.90
57753;DHT22;43583;53.132;6.574;2023-10-19T20:42:55;8.50;99.90
57753;DHT22;43583;53.132;6.574;2023-10-19T20:45:24;8.50;99.90
57753;DHT22;43583;53.132;6.574;2023-10-19T20:47:52;8.50;99.90
57753;DHT22;43583;53.132;6.574;2023-10-19T20:50:22;8.50;99.90
57753;DHT22;43583;53.132;6.574;2023-10-19T20:52:52;8.50;99.90
57753;DHT22;43583;53.132;6.574;2023-10-19T20:55:18;8.50;99.90
57753;DHT22;43583;53.132;6.574;2023-10-19T20:57:44;8.60;99.90
57753;DHT22;43583;53.132;6.574;2023-10-19T21:00:11;8.40;99.90
57753;DHT22;43583;53.132;6.574;2023-10-19T21:02:40;8.50;99.90
57753;DHT22;43583;53.132;6.574;2023-10-19T21:05:07;8.50;99.90
57753;DHT22;43583;53.132;6.574;2023-10-19T21:07:37;8.40;99.90
57753;DHT22;43583;53.132;6.574;2023-10-19T21:10:05;8.50;99.90
57753;DHT22;43583;53.132;6.574;2023-10-19T21:12:32;8.50;99.90
57753;DHT22;43583;53.132;6.574;2023-10-19T21:14:58;8.40;99.90
57753;DHT22;43583;53.132;6.574;2023-10-19T21:17:23;8.40;99.90
57753;DHT22;43583;53.132;6.574;2023-10-19T21:19:49;8.50;99.90
57753;DHT22;43583;53.132;6.574;2023-10-19T21:22:15;8.40;99.90
57753;DHT22;43583;53.132;6.574;2023-10-19T21:24:41;8.50;99.90
57753;DHT22;43583;53.132;6.574;2023-10-19T21:27:08;8.40;99.90
57753;DHT22;43583;53.132;6.574;2023-10-19T21:29:35;8.40;99.90
57753;DHT22;43583;53.132;6.574;2023-10-19T21:32:01;8.40;99.90
57753;DHT22;43583;53.132;6.574;2023-10-19T21:34:27;8.40;99.90
57753;DHT22;43583;53.132;6.574;2023-10-19T21:36:53;8.40;99.90
57753;DHT22;43583;53.132;6.574;2023-10-19T21:39:18;8.40;99.90
57753;DHT22;43583;53.132;6.574;2023-10-19T21:41:44;8.40;99.90
57753;DHT22;43583;53.132;6.574;2023-10-19T21:44:10;8.40;99.90
57753;DHT22;43583;53.132;6.574;2023-10-19T21:46:36;8.40;99.90
57753;DHT22;43583;53.132;6.574;2023-10-19T21:49:02;8.40;99.90
57753;DHT22;43583;53.132;6.574;2023-10-19T21:51:29;8.40;99.90
57753;DHT22;43583;53.132;6.574;2023-10-19T21:53:55;8.30;99.90
57753;DHT22;43583;53.132;6.574;2023-10-19T21:56:21;8.30;99.90
57753;DHT22;43583;53.132;6.574;2023-10-19T21:58:47;8.30;99.90
57753;DHT22;43583;53.132;6.574;2023-10-19T22:01:15;8.30;99.90
57753;DHT22;43583;53.132;6.574;2023-10-19T22:03:40;8.40;99.90
57753;DHT22;43583;53.132;6.574;2023-10-19T22:06:07;8.30;99.90
57753;DHT22;43583;53.132;6.574;2023-10-19T22:08:32;8.30;99.90
57753;DHT22;43583;53.132;6.574;2023-10-19T22:11:00;8.30;99.90
57753;DHT22;43583;53.132;6.574;2023-10-19T22:13:25;8.30;99.90
57753;DHT22;43583;53.132;6.574;2023-10-19T22:15:52;8.30;99.90
57753;DHT22;43583;53.132;6.574;2023-10-19T22:18:17;8.30;99.90
57753;DHT22;43583;53.132;6.574;2023-10-19T22:20:44;8.30;99.90
57753;DHT22;43583;53.132;6.574;2023-10-19T22:23:11;8.30;99.90
57753;DHT22;43583;53.132;6.574;2023-10-19T22:25:40;8.30;99.90
57753;DHT22;43583;53.132;6.574;2023-10-19T22:28:06;8.20;99.90
57753;DHT22;43583;53.132;6.574;2023-10-19T22:30:32;8.30;99.90
57753;DHT22;43583;53.132;6.574;2023-10-19T22:32:58;8.30;99.90
57753;DHT22;43583;53.132;6.574;2023-10-19T22:35:23;8.20;99.90
57753;DHT22;43583;53.132;6.574;2023-10-19T22:37:49;8.30;99.90
57753;DHT22;43583;53.132;6.574;2023-10-19T22:40:15;8.30;99.90
57753;DHT22;43583;53.132;6.574;2023-10-19T22:42:41;8.20;99.90
57753;DHT22;43583;53.132;6.574;2023-10-19T22:45:08;8.30;99.90
57753;DHT22;43583;53.132;6.574;2023-10-19T22:47:41;8.30;99.90
57753;DHT22;43583;53.132;6.574;2023-10-19T22:50:07;8.30;99.90
57753;DHT22;43583;53.132;6.574;2023-10-19T22:52:36;8.30;99.90
57753;DHT22;43583;53.132;6.574;2023-10-19T22:55:04;8.30;99.90
57753;DHT22;43583;53.132;6.574;2023-10-19T22:57:30;8.30;99.90
57753;DHT22;43583;53.132;6.574;2023-10-19T22:59:55;8.30;99.90
57753;DHT22;43583;53.132;6.574;2023-10-19T23:02:21;8.30;99.90
57753;DHT22;43583;53.132;6.574;2023-10-19T23:04:47;8.30;99.90
57753;DHT22;43583;53.132;6.574;2023-10-19T23:07:12;8.30;99.90
57753;DHT22;43583;53.132;6.574;2023-10-19T23:09:39;8.30;99.90
57753;DHT22;43583;53.132;6.574;2023-10-19T23:12:05;8.30;99.90
57753;DHT22;43583;53.132;6.574;2023-10-19T23:14:40;8.30;99.90
57753;DHT22;43583;53.132;6.574;2023-10-19T23:17:14;8.40;99.90
57753;DHT22;43583;53.132;6.574;2023-10-19T23:19:56;8.40;99.90
57753;DHT22;43583;53.132;6.574;2023-10-19T23:22:23;8.40;99.90
57753;DHT22;43583;53.132;6.574;2023-10-19T23:24:49;8.30;99.90
57753;DHT22;43583;53.132;6.574;2023-10-19T23:27:21;8.40;99.90
57753;DHT22;43583;53.132;6.574;2023-10-19T23:29:50;8.40;99.90
57753;DHT22;43583;53.132;6.574;2023-10-19T23:32:16;8.40;99.90
57753;DHT22;43583;53.132;6.574;2023-10-19T23:34:47;8.40;99.90
57753;DHT22;43583;53.132;6.574;2023-10-19T23:37:14;8.40;99.90
57753;DHT22;43583;53.132;6.574;2023-10-19T23:39:41;8.30;99.90
57753;DHT22;43583;53.132;6.574;2023-10-19T23:42:11;8.30;99.90
57753;DHT22;43583;53.132;6.574;2023-10-19T23:44:37;8.40;99.90
57753;DHT22;43583;53.132;6.574;2023-10-19T23:47:02;8.40;99.90
57753;DHT22;43583;53.132;6.574;2023-10-19T23:49:28;8.30;99.90
57753;DHT22;43583;53.132;6.574;2023-10-19T23:51:55;8.30;99.90
57753;DHT22;43583;53.132;6.574;2023-10-19T23:54:20;8.30;99.90
57753;DHT22;43583;53.132;6.574;2023-10-19T23:56:46;8.40;99.90
57753;DHT22;43583;53.132;6.574;2023-10-19T23:59:14;8.30;99.90
